sensor_id;sensor_type;location;lat;lon;timestamp;temperature;humidity
52669;DHT22;59898;52.786;6.892;2023-07-22T00:00:22;14.60;76.30
52669;DHT22;59898;52.786;6.892;2023-07-22T00:03:43;14.60;76.50
52669;DHT22;59898;52.786;6.892;2023-07-22T00:07:04;14.60;76.30
52669;DHT22;59898;52.786;6.892;2023-07-22T00:10:25;14.60;76.20
52669;DHT22;59898;52.786;6.892;2023-07-22T00:13:45;14.60;76.10
52669;DHT22;59898;52.786;6.892;2023-07-22T00:17:06;14.60;76.20
52669;DHT22;59898;52.786;6.892;2023-07-22T00:20:28;14.60;76.10
52669;DHT22;59898;52.786;6.892;2023-07-22T00:23:49;14.70;76.20
52669;DHT22;59898;52.786;6.892;2023-07-22T00:27:09;14.70;76.40
52669;DHT22;59898;52.786;6.892;2023-07-22T00:30:30;14.70;76.40
52669;DHT22;59898;52.786;6.892;2023-07-22T00:33:50;14.70;76.50
52669;DHT22;59898;52.786;6.892;2023-07-22T00:37:11;14.70;76.50
52669;DHT22;59898;52.786;6.892;2023-07-22T00:40:32;14.60;76.60
52669;DHT22;59898;52.786;6.892;2023-07-22T00:43:52;14.60;76.50
52669;DHT22;59898;52.786;6.892;2023-07-22T00:47:13;14.60;76.70
52669;DHT22;59898;52.786;6.892;2023-07-22T00:50:35;14.60;76.70
52669;DHT22;59898;52.786;6.892;2023-07-22T00:53:56;14.60;76.80
52669;DHT22;59898;52.786;6.892;2023-07-22T00:57:16;14.50;77.20
52669;DHT22;59898;52.786;6.892;2023-07-22T01:00:37;14.40;77.20
52669;DHT22;59898;52.786;6.892;2023-07-22T01:03:58;14.40;77.20
52669;DHT22;59898;52.786;6.892;2023-07-22T01:07:20;14.40;77.40
52669;DHT22;59898;52.786;6.892;2023-07-22T01:10:40;14.30;77.60
52669;DHT22;59898;52.786;6.892;2023-07-22T01:14:02;14.30;78.30
52669;DHT22;59898;52.786;6.892;2023-07-22T01:17:24;14.20;78.00
52669;DHT22;59898;52.786;6.892;2023-07-22T01:20:46;14.30;77.80
52669;DHT22;59898;52.786;6.892;2023-07-22T01:24:06;14.20;77.50
52669;DHT22;59898;52.786;6.892;2023-07-22T01:27:27;14.20;77.80
52669;DHT22;59898;52.786;6.892;2023-07-22T01:30:47;14.20;77.70
52669;DHT22;59898;52.786;6.892;2023-07-22T01:34:09;14.10;77.90
52669;DHT22;59898;52.786;6.892;2023-07-22T01:37:29;14.10;78.10
52669;DHT22;59898;52.786;6.892;2023-07-22T01:40:50;14.10;78.10
52669;DHT22;59898;52.786;6.892;2023-07-22T01:44:10;14.10;78.00
52669;DHT22;59898;52.786;6.892;2023-07-22T01:47:31;14.10;78.50
52669;DHT22;59898;52.786;6.892;2023-07-22T01:50:51;14.10;78.50
52669;DHT22;59898;52.786;6.892;2023-07-22T01:54:12;14.10;78.30
52669;DHT22;59898;52.786;6.892;2023-07-22T01:57:33;14.10;78.30
52669;DHT22;59898;52.786;6.892;2023-07-22T02:00:54;14.20;78.20
52669;DHT22;59898;52.786;6.892;2023-07-22T02:04:14;14.20;78.20
52669;DHT22;59898;52.786;6.892;2023-07-22T02:07:35;14.20;78.10
52669;DHT22;59898;52.786;6.892;2023-07-22T02:11:06;14.20;78.20
52669;DHT22;59898;52.786;6.892;2023-07-22T02:14:27;14.20;78.20
52669;DHT22;59898;52.786;6.892;2023-07-22T02:17:48;14.20;78.30
52669;DHT22;59898;52.786;6.892;2023-07-22T02:21:08;14.20;78.30
52669;DHT22;59898;52.786;6.892;2023-07-22T02:24:29;14.20;78.20
52669;DHT22;59898;52.786;6.892;2023-07-22T02:27:49;14.20;78.20
52669;DHT22;59898;52.786;6.892;2023-07-22T02:31:11;14.10;78.30
52669;DHT22;59898;52.786;6.892;2023-07-22T02:34:31;14.00;78.70
52669;DHT22;59898;52.786;6.892;2023-07-22T02:37:52;14.00;79.20
52669;DHT22;59898;52.786;6.892;2023-07-22T02:41:12;13.90;79.10
52669;DHT22;59898;52.786;6.892;2023-07-22T02:44:33;13.90;79.20
52669;DHT22;59898;52.786;6.892;2023-07-22T02:47:53;13.90;79.20
52669;DHT22;59898;52.786;6.892;2023-07-22T02:51:14;13.90;79.20
52669;DHT22;59898;52.786;6.892;2023-07-22T02:54:40;13.80;79.40
52669;DHT22;59898;52.786;6.892;2023-07-22T02:58:01;13.70;79.80
52669;DHT22;59898;52.786;6.892;2023-07-22T03:01:22;13.70;79.80
52669;DHT22;59898;52.786;6.892;2023-07-22T03:04:43;13.70;80.00
52669;DHT22;59898;52.786;6.892;2023-07-22T03:08:04;13.60;80.20
52669;DHT22;59898;52.786;6.892;2023-07-22T03:11:24;13.70;80.40
52669;DHT22;59898;52.786;6.892;2023-07-22T03:14:45;13.60;80.50
52669;DHT22;59898;52.786;6.892;2023-07-22T03:18:06;13.60;80.80
52669;DHT22;59898;52.786;6.892;2023-07-22T03:21:27;13.60;81.00
52669;DHT22;59898;52.786;6.892;2023-07-22T03:24:47;13.60;81.10
52669;DHT22;59898;52.786;6.892;2023-07-22T03:28:08;13.50;81.20
52669;DHT22;59898;52.786;6.892;2023-07-22T03:31:28;13.60;81.60
52669;DHT22;59898;52.786;6.892;2023-07-22T03:34:49;13.60;81.50
52669;DHT22;59898;52.786;6.892;2023-07-22T03:38:09;13.60;81.60
52669;DHT22;59898;52.786;6.892;2023-07-22T03:41:30;13.60;81.60
52669;DHT22;59898;52.786;6.892;2023-07-22T03:44:50;13.60;81.60
52669;DHT22;59898;52.786;6.892;2023-07-22T03:48:11;13.70;81.60
52669;DHT22;59898;52.786;6.892;2023-07-22T03:51:33;13.70;81.70
52669;DHT22;59898;52.786;6.892;2023-07-22T03:54:54;13.70;81.80
52669;DHT22;59898;52.786;6.892;2023-07-22T03:58:14;13.80;81.80
52669;DHT22;59898;52.786;6.892;2023-07-22T04:01:35;13.80;81.70
52669;DHT22;59898;52.786;6.892;2023-07-22T04:04:56;13.80;81.70
52669;DHT22;59898;52.786;6.892;2023-07-22T04:08:16;13.80;81.70
52669;DHT22;59898;52.786;6.892;2023-07-22T04:11:37;13.80;81.80
52669;DHT22;59898;52.786;6.892;2023-07-22T04:14:57;13.90;81.80
52669;DHT22;59898;52.786;6.892;2023-07-22T04:18:19;13.90;81.80
52669;DHT22;59898;52.786;6.892;2023-07-22T04:21:40;13.90;81.80
52669;DHT22;59898;52.786;6.892;2023-07-22T04:25:00;14.00;81.80
52669;DHT22;59898;52.786;6.892;2023-07-22T04:28:21;13.90;82.00
52669;DHT22;59898;52.786;6.892;2023-07-22T04:31:41;14.00;82.20
52669;DHT22;59898;52.786;6.892;2023-07-22T04:35:02;14.00;82.10
52669;DHT22;59898;52.786;6.892;2023-07-22T04:38:24;14.00;82.20
52669;DHT22;59898;52.786;6.892;2023-07-22T04:41:44;14.10;82.20
52669;DHT22;59898;52.786;6.892;2023-07-22T04:45:05;14.20;82.20
52669;DHT22;59898;52.786;6.892;2023-07-22T04:48:26;14.20;82.10
52669;DHT22;59898;52.786;6.892;2023-07-22T04:51:47;14.20;82.10
52669;DHT22;59898;52.786;6.892;2023-07-22T04:55:08;14.20;82.40
52669;DHT22;59898;52.786;6.892;2023-07-22T04:58:29;14.20;82.30
52669;DHT22;59898;52.786;6.892;2023-07-22T05:01:50;14.30;82.30
52669;DHT22;59898;52.786;6.892;2023-07-22T05:05:10;14.30;82.50
52669;DHT22;59898;52.786;6.892;2023-07-22T05:08:31;14.40;82.20
52669;DHT22;59898;52.786;6.892;2023-07-22T05:11:51;14.50;82.20
52669;DHT22;59898;52.786;6.892;2023-07-22T05:15:13;14.50;82.60
52669;DHT22;59898;52.786;6.892;2023-07-22T05:18:33;14.50;82.70
52669;DHT22;59898;52.786;6.892;2023-07-22T05:21:54;14.60;82.50
52669;DHT22;59898;52.786;6.892;2023-07-22T05:25:15;14.60;82.30
52669;DHT22;59898;52.786;6.892;2023-07-22T05:28:35;14.60;82.60
52669;DHT22;59898;52.786;6.892;2023-07-22T05:31:56;14.60;82.60
52669;DHT22;59898;52.786;6.892;2023-07-22T05:35:16;14.60;82.40
52669;DHT22;59898;52.786;6.892;2023-07-22T05:38:37;14.60;82.50
52669;DHT22;59898;52.786;6.892;2023-07-22T05:41:57;14.60;82.80
52669;DHT22;59898;52.786;6.892;2023-07-22T05:45:18;14.60;82.80
52669;DHT22;59898;52.786;6.892;2023-07-22T05:48:38;14.50;83.10
52669;DHT22;59898;52.786;6.892;2023-07-22T05:51:59;14.50;84.00
52669;DHT22;59898;52.786;6.892;2023-07-22T05:55:20;14.50;83.40
52669;DHT22;59898;52.786;6.892;2023-07-22T05:58:40;14.40;84.60
52669;DHT22;59898;52.786;6.892;2023-07-22T06:02:02;14.40;84.10
52669;DHT22;59898;52.786;6.892;2023-07-22T06:05:23;14.30;84.00
52669;DHT22;59898;52.786;6.892;2023-07-22T06:08:43;14.40;84.40
52669;DHT22;59898;52.786;6.892;2023-07-22T06:12:04;14.30;83.90
52669;DHT22;59898;52.786;6.892;2023-07-22T06:15:25;14.30;85.00
52669;DHT22;59898;52.786;6.892;2023-07-22T06:18:45;14.30;84.20
52669;DHT22;59898;52.786;6.892;2023-07-22T06:22:07;14.40;84.30
52669;DHT22;59898;52.786;6.892;2023-07-22T06:25:28;14.40;84.50
52669;DHT22;59898;52.786;6.892;2023-07-22T06:28:48;14.50;85.00
52669;DHT22;59898;52.786;6.892;2023-07-22T06:32:09;14.40;84.90
52669;DHT22;59898;52.786;6.892;2023-07-22T06:35:29;14.50;84.40
52669;DHT22;59898;52.786;6.892;2023-07-22T06:38:50;14.50;85.30
52669;DHT22;59898;52.786;6.892;2023-07-22T06:42:10;14.50;84.70
52669;DHT22;59898;52.786;6.892;2023-07-22T06:45:32;14.60;84.60
52669;DHT22;59898;52.786;6.892;2023-07-22T06:48:53;14.60;84.80
52669;DHT22;59898;52.786;6.892;2023-07-22T06:52:13;14.70;84.50
52669;DHT22;59898;52.786;6.892;2023-07-22T06:55:34;14.70;85.30
52669;DHT22;59898;52.786;6.892;2023-07-22T06:58:54;14.60;84.70
52669;DHT22;59898;52.786;6.892;2023-07-22T07:02:15;14.70;85.00
52669;DHT22;59898;52.786;6.892;2023-07-22T07:05:35;14.70;84.70
52669;DHT22;59898;52.786;6.892;2023-07-22T07:08:58;14.70;85.70
52669;DHT22;59898;52.786;6.892;2023-07-22T07:12:19;14.70;85.50
52669;DHT22;59898;52.786;6.892;2023-07-22T07:15:39;14.80;86.20
52669;DHT22;59898;52.786;6.892;2023-07-22T07:19:01;14.80;86.30
52669;DHT22;59898;52.786;6.892;2023-07-22T07:22:21;14.90;86.00
52669;DHT22;59898;52.786;6.892;2023-07-22T07:25:42;15.00;85.70
52669;DHT22;59898;52.786;6.892;2023-07-22T07:29:03;15.00;85.40
52669;DHT22;59898;52.786;6.892;2023-07-22T07:32:23;15.20;86.00
52669;DHT22;59898;52.786;6.892;2023-07-22T07:35:47;15.30;85.40
52669;DHT22;59898;52.786;6.892;2023-07-22T07:39:07;15.50;85.10
52669;DHT22;59898;52.786;6.892;2023-07-22T07:42:28;15.70;84.90
52669;DHT22;59898;52.786;6.892;2023-07-22T07:45:49;15.80;84.40
52669;DHT22;59898;52.786;6.892;2023-07-22T07:49:09;15.90;84.20
52669;DHT22;59898;52.786;6.892;2023-07-22T07:52:30;15.90;83.60
52669;DHT22;59898;52.786;6.892;2023-07-22T07:55:50;15.90;83.50
52669;DHT22;59898;52.786;6.892;2023-07-22T07:59:11;15.80;83.70
52669;DHT22;59898;52.786;6.892;2023-07-22T08:02:32;16.00;83.50
52669;DHT22;59898;52.786;6.892;2023-07-22T08:05:52;16.10;83.30
52669;DHT22;59898;52.786;6.892;2023-07-22T08:09:13;16.20;83.00
52669;DHT22;59898;52.786;6.892;2023-07-22T08:12:39;16.40;82.60
52669;DHT22;59898;52.786;6.892;2023-07-22T08:16:03;16.70;82.00
52669;DHT22;59898;52.786;6.892;2023-07-22T08:19:24;16.90;80.90
52669;DHT22;59898;52.786;6.892;2023-07-22T08:22:45;17.00;80.50
52669;DHT22;59898;52.786;6.892;2023-07-22T08:26:06;17.10;80.30
52669;DHT22;59898;52.786;6.892;2023-07-22T08:29:26;17.20;80.20
52669;DHT22;59898;52.786;6.892;2023-07-22T08:32:47;17.30;79.40
52669;DHT22;59898;52.786;6.892;2023-07-22T08:36:08;17.40;78.80
52669;DHT22;59898;52.786;6.892;2023-07-22T08:39:29;17.50;79.00
52669;DHT22;59898;52.786;6.892;2023-07-22T08:42:50;17.60;78.70
52669;DHT22;59898;52.786;6.892;2023-07-22T08:46:12;17.70;78.00
52669;DHT22;59898;52.786;6.892;2023-07-22T08:49:32;17.90;77.90
52669;DHT22;59898;52.786;6.892;2023-07-22T08:52:54;18.00;76.60
52669;DHT22;59898;52.786;6.892;2023-07-22T08:56:15;18.40;75.80
52669;DHT22;59898;52.786;6.892;2023-07-22T08:59:36;18.70;75.00
52669;DHT22;59898;52.786;6.892;2023-07-22T09:02:57;18.80;74.30
52669;DHT22;59898;52.786;6.892;2023-07-22T09:06:22;18.90;73.50
52669;DHT22;59898;52.786;6.892;2023-07-22T09:09:44;18.90;73.20
52669;DHT22;59898;52.786;6.892;2023-07-22T09:13:06;19.00;72.90
52669;DHT22;59898;52.786;6.892;2023-07-22T09:16:27;19.00;72.40
52669;DHT22;59898;52.786;6.892;2023-07-22T09:19:52;19.00;72.50
52669;DHT22;59898;52.786;6.892;2023-07-22T09:23:14;19.10;71.90
52669;DHT22;59898;52.786;6.892;2023-07-22T09:26:34;19.10;71.90
52669;DHT22;59898;52.786;6.892;2023-07-22T09:29:55;18.90;71.30
52669;DHT22;59898;52.786;6.892;2023-07-22T09:33:22;18.60;71.20
52669;DHT22;59898;52.786;6.892;2023-07-22T09:37:01;18.50;71.90
52669;DHT22;59898;52.786;6.892;2023-07-22T09:40:24;18.50;72.10
52669;DHT22;59898;52.786;6.892;2023-07-22T09:43:47;18.50;72.30
52669;DHT22;59898;52.786;6.892;2023-07-22T09:47:08;18.50;72.60
52669;DHT22;59898;52.786;6.892;2023-07-22T09:50:29;18.40;73.80
52669;DHT22;59898;52.786;6.892;2023-07-22T09:54:00;18.20;75.40
52669;DHT22;59898;52.786;6.892;2023-07-22T09:57:22;17.90;75.90
52669;DHT22;59898;52.786;6.892;2023-07-22T10:00:48;17.70;76.70
52669;DHT22;59898;52.786;6.892;2023-07-22T10:04:10;17.60;77.50
52669;DHT22;59898;52.786;6.892;2023-07-22T10:07:33;17.50;77.70
52669;DHT22;59898;52.786;6.892;2023-07-22T10:10:56;17.50;77.80
52669;DHT22;59898;52.786;6.892;2023-07-22T10:14:18;17.50;78.50
52669;DHT22;59898;52.786;6.892;2023-07-22T10:17:40;17.50;78.80
52669;DHT22;59898;52.786;6.892;2023-07-22T10:21:01;17.50;79.00
52669;DHT22;59898;52.786;6.892;2023-07-22T10:24:22;17.50;79.20
52669;DHT22;59898;52.786;6.892;2023-07-22T10:27:44;17.60;79.10
52669;DHT22;59898;52.786;6.892;2023-07-22T10:31:05;17.60;79.10
52669;DHT22;59898;52.786;6.892;2023-07-22T10:34:25;17.60;79.30
52669;DHT22;59898;52.786;6.892;2023-07-22T10:37:46;17.60;79.30
52669;DHT22;59898;52.786;6.892;2023-07-22T10:41:14;17.60;79.20
52669;DHT22;59898;52.786;6.892;2023-07-22T10:44:38;17.60;79.50
52669;DHT22;59898;52.786;6.892;2023-07-22T10:48:05;17.60;79.40
52669;DHT22;59898;52.786;6.892;2023-07-22T10:51:35;17.50;80.10
52669;DHT22;59898;52.786;6.892;2023-07-22T10:54:56;17.30;81.40
52669;DHT22;59898;52.786;6.892;2023-07-22T10:58:20;17.10;82.30
52669;DHT22;59898;52.786;6.892;2023-07-22T11:01:43;17.00;83.30
52669;DHT22;59898;52.786;6.892;2023-07-22T11:05:04;16.90;84.50
52669;DHT22;59898;52.786;6.892;2023-07-22T11:08:39;16.70;85.00
52669;DHT22;59898;52.786;6.892;2023-07-22T11:15:29;16.60;86.10
52669;DHT22;59898;52.786;6.892;2023-07-22T11:18:49;16.60;86.30
52669;DHT22;59898;52.786;6.892;2023-07-22T11:22:10;16.60;87.40
52669;DHT22;59898;52.786;6.892;2023-07-22T11:25:33;16.50;87.50
52669;DHT22;59898;52.786;6.892;2023-07-22T11:28:54;16.50;88.10
52669;DHT22;59898;52.786;6.892;2023-07-22T11:32:16;16.50;87.70
52669;DHT22;59898;52.786;6.892;2023-07-22T11:35:37;16.60;87.10
52669;DHT22;59898;52.786;6.892;2023-07-22T11:39:04;16.70;86.80
52669;DHT22;59898;52.786;6.892;2023-07-22T11:42:25;16.80;86.70
52669;DHT22;59898;52.786;6.892;2023-07-22T11:45:46;16.90;86.40
52669;DHT22;59898;52.786;6.892;2023-07-22T11:49:06;16.80;85.80
52669;DHT22;59898;52.786;6.892;2023-07-22T11:52:27;16.70;86.10
52669;DHT22;59898;52.786;6.892;2023-07-22T11:55:47;16.70;86.10
52669;DHT22;59898;52.786;6.892;2023-07-22T11:59:08;16.70;86.10
52669;DHT22;59898;52.786;6.892;2023-07-22T12:02:28;16.70;85.80
52669;DHT22;59898;52.786;6.892;2023-07-22T12:05:49;16.60;85.60
52669;DHT22;59898;52.786;6.892;2023-07-22T12:09:10;16.60;85.30
52669;DHT22;59898;52.786;6.892;2023-07-22T12:12:44;16.60;85.20
52669;DHT22;59898;52.786;6.892;2023-07-22T12:16:06;16.60;85.20
52669;DHT22;59898;52.786;6.892;2023-07-22T12:19:30;16.50;85.40
52669;DHT22;59898;52.786;6.892;2023-07-22T12:22:51;16.50;85.50
52669;DHT22;59898;52.786;6.892;2023-07-22T12:26:11;16.50;85.60
52669;DHT22;59898;52.786;6.892;2023-07-22T12:29:32;16.50;85.70
52669;DHT22;59898;52.786;6.892;2023-07-22T12:32:52;16.60;85.30
52669;DHT22;59898;52.786;6.892;2023-07-22T12:36:13;16.60;85.10
52669;DHT22;59898;52.786;6.892;2023-07-22T12:39:33;16.60;84.80
52669;DHT22;59898;52.786;6.892;2023-07-22T12:42:54;16.70;84.50
52669;DHT22;59898;52.786;6.892;2023-07-22T12:46:15;16.70;84.30
52669;DHT22;59898;52.786;6.892;2023-07-22T12:49:35;16.70;84.30
52669;DHT22;59898;52.786;6.892;2023-07-22T12:52:56;16.60;84.20
52669;DHT22;59898;52.786;6.892;2023-07-22T12:56:17;16.60;84.60
52669;DHT22;59898;52.786;6.892;2023-07-22T12:59:37;16.60;84.60
52669;DHT22;59898;52.786;6.892;2023-07-22T13:02:58;16.60;84.80
52669;DHT22;59898;52.786;6.892;2023-07-22T13:06:19;16.60;84.60
52669;DHT22;59898;52.786;6.892;2023-07-22T13:09:40;16.50;84.60
52669;DHT22;59898;52.786;6.892;2023-07-22T13:13:02;16.50;84.70
52669;DHT22;59898;52.786;6.892;2023-07-22T13:16:23;16.50;84.80
52669;DHT22;59898;52.786;6.892;2023-07-22T13:19:44;16.40;84.90
52669;DHT22;59898;52.786;6.892;2023-07-22T13:23:04;16.20;85.00
52669;DHT22;59898;52.786;6.892;2023-07-22T13:26:25;16.10;85.00
52669;DHT22;59898;52.786;6.892;2023-07-22T13:29:45;16.00;85.40
52669;DHT22;59898;52.786;6.892;2023-07-22T13:33:06;15.90;85.50
52669;DHT22;59898;52.786;6.892;2023-07-22T13:36:26;15.90;85.70
52669;DHT22;59898;52.786;6.892;2023-07-22T13:39:47;15.80;85.90
52669;DHT22;59898;52.786;6.892;2023-07-22T13:43:07;15.80;85.90
52669;DHT22;59898;52.786;6.892;2023-07-22T13:46:29;15.80;86.00
52669;DHT22;59898;52.786;6.892;2023-07-22T13:49:50;15.70;86.80
52669;DHT22;59898;52.786;6.892;2023-07-22T13:53:10;15.70;86.80
52669;DHT22;59898;52.786;6.892;2023-07-22T13:56:31;15.70;87.20
52669;DHT22;59898;52.786;6.892;2023-07-22T13:59:52;15.70;87.50
52669;DHT22;59898;52.786;6.892;2023-07-22T14:03:14;15.80;87.20
52669;DHT22;59898;52.786;6.892;2023-07-22T14:06:34;15.80;87.30
52669;DHT22;59898;52.786;6.892;2023-07-22T14:09:55;15.80;87.80
52669;DHT22;59898;52.786;6.892;2023-07-22T14:13:16;15.90;87.70
52669;DHT22;59898;52.786;6.892;2023-07-22T14:16:36;15.90;88.00
52669;DHT22;59898;52.786;6.892;2023-07-22T14:19:57;15.90;88.30
52669;DHT22;59898;52.786;6.892;2023-07-22T14:23:17;16.00;88.40
52669;DHT22;59898;52.786;6.892;2023-07-22T14:26:38;16.00;88.30
52669;DHT22;59898;52.786;6.892;2023-07-22T14:29:58;16.10;88.30
52669;DHT22;59898;52.786;6.892;2023-07-22T14:33:19;16.00;87.80
52669;DHT22;59898;52.786;6.892;2023-07-22T14:36:39;16.00;88.60
52669;DHT22;59898;52.786;6.892;2023-07-22T14:40:00;16.00;88.40
52669;DHT22;59898;52.786;6.892;2023-07-22T14:43:20;15.90;88.40
52669;DHT22;59898;52.786;6.892;2023-07-22T14:46:41;16.00;88.80
52669;DHT22;59898;52.786;6.892;2023-07-22T14:50:02;16.00;89.20
52669;DHT22;59898;52.786;6.892;2023-07-22T14:53:22;16.00;88.90
52669;DHT22;59898;52.786;6.892;2023-07-22T14:56:43;16.00;89.30
52669;DHT22;59898;52.786;6.892;2023-07-22T15:00:05;16.00;89.10
52669;DHT22;59898;52.786;6.892;2023-07-22T15:03:26;16.00;89.60
52669;DHT22;59898;52.786;6.892;2023-07-22T15:06:46;16.00;90.40
52669;DHT22;59898;52.786;6.892;2023-07-22T15:10:07;16.00;90.70
52669;DHT22;59898;52.786;6.892;2023-07-22T15:13:28;15.90;90.50
52669;DHT22;59898;52.786;6.892;2023-07-22T15:16:48;15.90;90.60
52669;DHT22;59898;52.786;6.892;2023-07-22T15:20:09;15.90;90.20
52669;DHT22;59898;52.786;6.892;2023-07-22T15:23:30;15.90;91.20
52669;DHT22;59898;52.786;6.892;2023-07-22T15:26:50;15.90;90.70
52669;DHT22;59898;52.786;6.892;2023-07-22T15:30:11;15.90;90.50
52669;DHT22;59898;52.786;6.892;2023-07-22T15:33:31;15.90;90.50
52669;DHT22;59898;52.786;6.892;2023-07-22T15:36:53;16.00;90.30
52669;DHT22;59898;52.786;6.892;2023-07-22T15:40:13;16.00;90.40
52669;DHT22;59898;52.786;6.892;2023-07-22T15:43:34;16.00;90.70
52669;DHT22;59898;52.786;6.892;2023-07-22T15:46:55;16.10;90.20
52669;DHT22;59898;52.786;6.892;2023-07-22T15:50:15;16.10;90.30
52669;DHT22;59898;52.786;6.892;2023-07-22T15:53:36;16.10;90.40
52669;DHT22;59898;52.786;6.892;2023-07-22T15:56:56;16.10;90.60
52669;DHT22;59898;52.786;6.892;2023-07-22T16:00:17;16.10;90.30
52669;DHT22;59898;52.786;6.892;2023-07-22T16:03:38;16.10;90.70
52669;DHT22;59898;52.786;6.892;2023-07-22T16:06:58;16.00;91.10
52669;DHT22;59898;52.786;6.892;2023-07-22T16:10:21;16.00;90.70
52669;DHT22;59898;52.786;6.892;2023-07-22T16:13:42;16.00;90.70
52669;DHT22;59898;52.786;6.892;2023-07-22T16:17:03;16.00;90.70
52669;DHT22;59898;52.786;6.892;2023-07-22T16:20:24;16.00;90.90
52669;DHT22;59898;52.786;6.892;2023-07-22T16:23:44;16.00;91.30
52669;DHT22;59898;52.786;6.892;2023-07-22T16:27:05;16.00;91.40
52669;DHT22;59898;52.786;6.892;2023-07-22T16:30:26;15.90;91.80
52669;DHT22;59898;52.786;6.892;2023-07-22T16:33:48;15.90;90.90
52669;DHT22;59898;52.786;6.892;2023-07-22T16:37:08;15.90;91.10
52669;DHT22;59898;52.786;6.892;2023-07-22T16:40:29;16.00;91.10
52669;DHT22;59898;52.786;6.892;2023-07-22T16:43:50;16.10;90.80
52669;DHT22;59898;52.786;6.892;2023-07-22T16:47:11;16.10;91.10
52669;DHT22;59898;52.786;6.892;2023-07-22T16:50:31;16.10;91.00
52669;DHT22;59898;52.786;6.892;2023-07-22T16:53:53;16.10;90.80
52669;DHT22;59898;52.786;6.892;2023-07-22T16:57:13;16.20;90.70
52669;DHT22;59898;52.786;6.892;2023-07-22T17:00:34;16.10;90.70
52669;DHT22;59898;52.786;6.892;2023-07-22T17:03:55;16.20;90.50
52669;DHT22;59898;52.786;6.892;2023-07-22T17:07:15;16.20;90.40
52669;DHT22;59898;52.786;6.892;2023-07-22T17:10:36;16.20;90.40
52669;DHT22;59898;52.786;6.892;2023-07-22T17:13:57;16.20;90.30
52669;DHT22;59898;52.786;6.892;2023-07-22T17:17:17;16.30;90.20
52669;DHT22;59898;52.786;6.892;2023-07-22T17:20:38;16.30;90.10
52669;DHT22;59898;52.786;6.892;2023-07-22T17:24:02;16.30;90.20
52669;DHT22;59898;52.786;6.892;2023-07-22T17:27:22;16.30;90.20
52669;DHT22;59898;52.786;6.892;2023-07-22T17:30:43;16.40;90.20
52669;DHT22;59898;52.786;6.892;2023-07-22T17:34:03;16.30;90.10
52669;DHT22;59898;52.786;6.892;2023-07-22T17:37:24;16.30;90.00
52669;DHT22;59898;52.786;6.892;2023-07-22T17:40:47;16.40;90.00
52669;DHT22;59898;52.786;6.892;2023-07-22T17:44:07;16.30;90.00
52669;DHT22;59898;52.786;6.892;2023-07-22T17:47:29;16.30;90.20
52669;DHT22;59898;52.786;6.892;2023-07-22T17:50:50;16.30;90.10
52669;DHT22;59898;52.786;6.892;2023-07-22T17:54:10;16.30;90.10
52669;DHT22;59898;52.786;6.892;2023-07-22T17:57:31;16.30;90.10
52669;DHT22;59898;52.786;6.892;2023-07-22T18:00:52;16.30;90.20
52669;DHT22;59898;52.786;6.892;2023-07-22T18:04:12;16.30;90.20
52669;DHT22;59898;52.786;6.892;2023-07-22T18:07:34;16.30;90.50
52669;DHT22;59898;52.786;6.892;2023-07-22T18:10:57;16.30;90.30
52669;DHT22;59898;52.786;6.892;2023-07-22T18:14:18;16.20;90.50
52669;DHT22;59898;52.786;6.892;2023-07-22T18:17:38;16.20;90.40
52669;DHT22;59898;52.786;6.892;2023-07-22T18:20:59;16.20;90.50
52669;DHT22;59898;52.786;6.892;2023-07-22T18:24:21;16.10;90.60
52669;DHT22;59898;52.786;6.892;2023-07-22T18:27:42;16.20;90.50
52669;DHT22;59898;52.786;6.892;2023-07-22T18:31:05;16.10;90.70
52669;DHT22;59898;52.786;6.892;2023-07-22T18:34:27;16.10;91.10
52669;DHT22;59898;52.786;6.892;2023-07-22T18:37:48;16.00;91.10
52669;DHT22;59898;52.786;6.892;2023-07-22T18:41:08;16.10;90.90
52669;DHT22;59898;52.786;6.892;2023-07-22T18:44:29;16.10;90.70
52669;DHT22;59898;52.786;6.892;2023-07-22T18:47:49;16.10;90.60
52669;DHT22;59898;52.786;6.892;2023-07-22T18:51:10;16.10;90.50
52669;DHT22;59898;52.786;6.892;2023-07-22T18:54:31;16.10;90.30
52669;DHT22;59898;52.786;6.892;2023-07-22T18:57:51;16.10;90.10
52669;DHT22;59898;52.786;6.892;2023-07-22T19:01:14;16.00;90.20
52669;DHT22;59898;52.786;6.892;2023-07-22T19:04:35;16.00;90.30
52669;DHT22;59898;52.786;6.892;2023-07-22T19:07:55;16.00;90.10
52669;DHT22;59898;52.786;6.892;2023-07-22T19:11:16;16.00;90.00
52669;DHT22;59898;52.786;6.892;2023-07-22T19:14:36;16.00;90.10
52669;DHT22;59898;52.786;6.892;2023-07-22T19:17:58;16.00;89.90
52669;DHT22;59898;52.786;6.892;2023-07-22T19:21:18;16.00;90.00
52669;DHT22;59898;52.786;6.892;2023-07-22T19:24:39;16.00;90.00
52669;DHT22;59898;52.786;6.892;2023-07-22T19:27:59;16.00;90.00
52669;DHT22;59898;52.786;6.892;2023-07-22T19:31:20;15.90;90.20
52669;DHT22;59898;52.786;6.892;2023-07-22T19:34:40;16.00;90.00
52669;DHT22;59898;52.786;6.892;2023-07-22T19:38:01;16.00;90.10
52669;DHT22;59898;52.786;6.892;2023-07-22T19:41:22;15.90;90.30
52669;DHT22;59898;52.786;6.892;2023-07-22T19:44:42;15.90;90.00
52669;DHT22;59898;52.786;6.892;2023-07-22T19:48:03;15.90;90.70
52669;DHT22;59898;52.786;6.892;2023-07-22T19:51:24;15.90;91.10
52669;DHT22;59898;52.786;6.892;2023-07-22T19:54:44;15.80;91.20
52669;DHT22;59898;52.786;6.892;2023-07-22T19:58:05;15.80;91.40
52669;DHT22;59898;52.786;6.892;2023-07-22T20:01:26;15.70;91.50
52669;DHT22;59898;52.786;6.892;2023-07-22T20:04:46;15.70;91.50
52669;DHT22;59898;52.786;6.892;2023-07-22T20:08:08;15.70;91.60
52669;DHT22;59898;52.786;6.892;2023-07-22T20:11:29;15.70;92.00
52669;DHT22;59898;52.786;6.892;2023-07-22T20:14:49;15.80;91.90
52669;DHT22;59898;52.786;6.892;2023-07-22T20:18:10;15.70;92.80
52669;DHT22;59898;52.786;6.892;2023-07-22T20:21:30;15.60;92.80
52669;DHT22;59898;52.786;6.892;2023-07-22T20:24:51;15.70;92.50
52669;DHT22;59898;52.786;6.892;2023-07-22T20:28:11;15.60;93.10
52669;DHT22;59898;52.786;6.892;2023-07-22T20:31:32;15.60;92.40
52669;DHT22;59898;52.786;6.892;2023-07-22T20:34:52;15.60;93.10
52669;DHT22;59898;52.786;6.892;2023-07-22T20:38:13;15.60;93.50
52669;DHT22;59898;52.786;6.892;2023-07-22T20:41:33;15.60;93.50
52669;DHT22;59898;52.786;6.892;2023-07-22T20:44:54;15.60;92.90
52669;DHT22;59898;52.786;6.892;2023-07-22T20:48:14;15.50;93.50
52669;DHT22;59898;52.786;6.892;2023-07-22T20:51:35;15.50;93.20
52669;DHT22;59898;52.786;6.892;2023-07-22T20:54:55;15.50;93.40
52669;DHT22;59898;52.786;6.892;2023-07-22T20:58:16;15.50;93.10
52669;DHT22;59898;52.786;6.892;2023-07-22T21:01:37;15.50;93.80
52669;DHT22;59898;52.786;6.892;2023-07-22T21:04:57;15.50;93.80
52669;DHT22;59898;52.786;6.892;2023-07-22T21:08:18;15.50;93.90
52669;DHT22;59898;52.786;6.892;2023-07-22T21:11:38;15.50;93.60